createdAt,value
2023-01-18T00:01:50.212Z,75.65
2023-01-18T00:05:12.144Z,75.89
2023-01-18T00:08:35.923Z,76.59
2023-01-18T00:11:58.896Z,76.23
2023-01-18T00:15:20.709Z,76.73
2023-01-18T00:18:42.137Z,76.65
2023-01-18T00:22:03.809Z,76.73
2023-01-18T00:25:25.644Z,76.34
2023-01-18T00:28:48.707Z,75.86
2023-01-18T00:32:10.522Z,76.14
2023-01-18T00:35:32.159Z,75.92
2023-01-18T00:38:54.287Z,76.12
2023-01-18T00:42:33.053Z,75.13
2023-01-18T00:45:55.898Z,75.30
2023-01-18T00:49:17.534Z,75.27
2023-01-18T00:52:40.428Z,74.79
2023-01-18T00:56:02.432Z,75.19
2023-01-18T00:59:24.129Z,75.85
2023-01-18T01:02:47.219Z,75.91
2023-01-18T01:06:33.291Z,76.33
2023-01-18T01:09:57.255Z,76.13
2023-01-18T01:13:38.316Z,76.46
2023-01-18T01:17:17.079Z,76.09
2023-01-18T01:20:57.358Z,75.87
2023-01-18T01:24:36.131Z,75.71
2023-01-18T01:27:57.778Z,75.34
2023-01-18T01:31:21.095Z,75.63
2023-01-18T01:34:42.923Z,75.87
2023-01-18T01:38:06.574Z,75.92
2023-01-18T01:41:30.188Z,76.09
2023-01-18T01:44:52.821Z,76.09
2023-01-18T01:48:14.908Z,76.23
2023-01-18T01:51:38.982Z,76.10
2023-01-18T01:55:05.714Z,76.60
2023-01-18T01:58:30.365Z,76.60
2023-01-18T02:01:52.008Z,76.42
2023-01-18T02:05:16.375Z,76.40
2023-01-18T02:08:38.621Z,76.42
2023-01-18T02:12:03.039Z,76.76
2023-01-18T02:15:34.281Z,76.79
2023-01-18T02:19:03.835Z,76.17
2023-01-18T02:22:39.157Z,76.39
2023-01-18T02:26:18.769Z,76.74
2023-01-18T02:29:52.307Z,76.65
2023-01-18T02:33:20.341Z,76.70
2023-01-18T02:36:50.271Z,77.23
2023-01-18T02:40:17.517Z,77.58
2023-01-18T02:43:59.869Z,77.94
2023-01-18T02:47:23.619Z,77.45
2023-01-18T02:50:45.329Z,78.05
2023-01-18T02:54:10.130Z,78.01
2023-01-18T02:57:32.310Z,78.26
2023-01-18T03:00:59.971Z,77.97
2023-01-18T03:04:26.291Z,77.17
2023-01-18T03:07:54.418Z,77.22
2023-01-18T03:11:21.876Z,76.64
2023-01-18T03:14:52.609Z,76.70
2023-01-18T03:18:20.443Z,76.95
2023-01-18T03:21:48.602Z,77.24
2023-01-18T03:25:12.927Z,76.50
2023-01-18T03:28:54.497Z,77.29
2023-01-18T03:32:36.848Z,77.42
2023-01-18T03:36:00.855Z,77.55
2023-01-18T03:39:29.921Z,77.71
2023-01-18T03:42:56.920Z,77.80
2023-01-18T03:46:23.244Z,78.03
2023-01-18T03:49:44.941Z,77.49
2023-01-18T03:53:14.681Z,77.68
2023-01-18T03:56:43.407Z,77.31
2023-01-18T04:00:06.938Z,77.24
2023-01-18T04:03:34.198Z,77.18
2023-01-18T04:06:57.917Z,77.41
2023-01-18T04:10:19.297Z,77.92
2023-01-18T04:13:42.009Z,77.79
2023-01-18T04:17:03.782Z,77.50
2023-01-18T04:20:25.640Z,77.71
2023-01-18T04:23:47.338Z,78.18
2023-01-18T04:27:09.234Z,78.06
2023-01-18T04:30:32.390Z,78.20
2023-01-18T04:33:54.250Z,78.44
2023-01-18T04:37:16.094Z,78.38
2023-01-18T04:40:37.362Z,78.36
2023-01-18T04:43:59.331Z,78.75
2023-01-18T04:47:22.208Z,78.39
2023-01-18T04:50:46.533Z,78.35
2023-01-18T04:54:08.274Z,78.01
2023-01-18T04:57:29.466Z,77.64
2023-01-18T05:00:51.236Z,77.27
2023-01-18T05:04:14.623Z,78.03
2023-01-18T05:07:36.234Z,77.80
2023-01-18T05:11:02.663Z,77.73
2023-01-18T05:14:24.166Z,77.76
2023-01-18T05:17:45.483Z,78.37
2023-01-18T05:21:08.253Z,77.58
2023-01-18T05:24:30.266Z,77.39
2023-01-18T05:27:51.800Z,77.51
2023-01-18T05:31:13.892Z,77.82
2023-01-18T05:34:35.307Z,77.91
2023-01-18T05:37:58.653Z,77.91
2023-01-18T05:41:21.073Z,77.71
2023-01-18T05:44:42.642Z,78.32
2023-01-18T05:48:05.014Z,78.00
2023-01-18T05:51:27.178Z,77.64
2023-01-18T05:54:50.212Z,76.63
2023-01-18T05:58:11.968Z,77.05
2023-01-18T06:01:33.671Z,76.72
2023-01-18T06:04:55.484Z,76.97
2023-01-18T06:08:17.048Z,77.09
2023-01-18T06:11:39.846Z,77.10
2023-01-18T06:15:01.818Z,77.27
2023-01-18T06:18:24.220Z,77.43
2023-01-18T06:21:45.661Z,77.49
2023-01-18T06:25:08.143Z,77.41
2023-01-18T06:28:31.162Z,77.43
2023-01-18T06:31:52.529Z,77.44
2023-01-18T06:35:14.413Z,76.82
2023-01-18T06:38:36.016Z,77.65
2023-01-18T06:41:57.971Z,77.10
2023-01-18T06:45:22.158Z,77.57
2023-01-18T06:48:43.870Z,77.15
2023-01-18T06:52:05.815Z,78.01
2023-01-18T06:55:27.272Z,78.05
2023-01-18T06:58:49.113Z,77.56
2023-01-18T07:02:15.314Z,76.80
2023-01-18T07:05:37.269Z,76.50
2023-01-18T07:08:59.015Z,76.21
2023-01-18T07:12:20.841Z,76.21
2023-01-18T07:15:42.225Z,75.72
2023-01-18T07:19:06.670Z,75.98
2023-01-18T07:22:28.247Z,76.56
2023-01-18T07:25:50.205Z,76.46
2023-01-18T07:29:11.942Z,76.46
2023-01-18T07:32:33.706Z,76.04
2023-01-18T07:35:59.027Z,75.52
2023-01-18T07:39:20.860Z,75.56
2023-01-18T07:42:42.698Z,75.36
2023-01-18T07:46:05.179Z,75.87
2023-01-18T07:49:27.125Z,75.17
2023-01-18T07:52:50.356Z,75.66
2023-01-18T07:56:14.950Z,76.27
2023-01-18T07:59:36.700Z,75.87
2023-01-18T08:02:59.353Z,76.63
2023-01-18T08:06:22.429Z,76.84
2023-01-18T08:09:45.855Z,77.42
2023-01-18T08:13:10.207Z,76.98
2023-01-18T08:16:31.884Z,77.79
2023-01-18T08:19:54.022Z,77.95
2023-01-18T08:23:16.275Z,77.36
2023-01-18T08:26:39.339Z,77.72
2023-01-18T08:30:01.148Z,77.86
2023-01-18T08:33:22.971Z,78.46
2023-01-18T08:36:44.753Z,78.79
2023-01-18T08:40:07.701Z,78.83
2023-01-18T08:43:30.484Z,78.48
2023-01-18T08:46:52.161Z,77.20
2023-01-18T08:50:13.520Z,78.10
2023-01-18T08:53:35.361Z,77.80
2023-01-18T08:56:57.286Z,77.12
2023-01-18T09:00:23.293Z,77.08
2023-01-18T09:03:47.361Z,77.04
2023-01-18T09:07:08.979Z,77.82
2023-01-18T09:10:30.711Z,78.44
2023-01-18T09:14:00.691Z,78.54
2023-01-18T09:17:23.951Z,78.45
2023-01-18T09:20:45.482Z,79.16
2023-01-18T09:24:08.483Z,78.37
2023-01-18T09:27:30.158Z,78.69
2023-01-18T09:30:51.842Z,79.03
2023-01-18T09:34:19.666Z,77.53
2023-01-18T09:37:41.640Z,78.03
2023-01-18T09:41:04.362Z,78.51
2023-01-18T09:44:30.612Z,78.64
2023-01-18T09:48:00.407Z,77.44
2023-01-18T09:51:28.373Z,78.10
2023-01-18T09:54:57.353Z,77.60
2023-01-18T09:58:41.539Z,77.06
2023-01-18T10:02:04.596Z,77.44
2023-01-18T10:05:29.347Z,77.81
2023-01-18T10:08:58.846Z,77.52
2023-01-18T10:12:27.712Z,77.50
2023-01-18T10:15:49.619Z,77.74
2023-01-18T10:19:20.432Z,76.91
2023-01-18T10:22:49.785Z,76.87
2023-01-18T10:26:19.810Z,76.63
2023-01-18T10:29:55.579Z,76.62
2023-01-18T10:33:21.621Z,75.80
2023-01-18T10:36:46.953Z,75.21
2023-01-18T10:40:13.453Z,75.08
2023-01-18T10:43:38.833Z,75.03
2023-01-18T10:47:02.659Z,75.29
2023-01-18T10:50:38.702Z,75.13
2023-01-18T10:54:00.186Z,75.52
2023-01-18T10:57:25.491Z,75.05
2023-01-18T11:00:54.886Z,74.96
2023-01-18T11:04:22.259Z,75.09
2023-01-18T11:07:44.001Z,75.33
2023-01-18T11:11:08.027Z,75.16
2023-01-18T11:14:32.003Z,75.19
2023-01-18T11:18:12.001Z,74.98
2023-01-18T11:21:45.964Z,74.83
2023-01-18T11:25:17.530Z,74.97
2023-01-18T11:28:41.117Z,75.40
2023-01-18T11:32:05.373Z,75.01
2023-01-18T11:35:33.477Z,74.48
2023-01-18T11:38:55.307Z,74.81
2023-01-18T11:42:30.255Z,75.33
2023-01-18T11:45:59.092Z,75.03
2023-01-18T11:49:42.234Z,74.77
2023-01-18T11:53:16.566Z,74.90
2023-01-18T11:56:43.542Z,74.28
2023-01-18T12:00:05.527Z,74.19
2023-01-18T12:03:47.385Z,74.53
2023-01-18T12:07:27.099Z,74.91
2023-01-18T12:11:11.449Z,74.54
2023-01-18T12:14:48.243Z,74.52
2023-01-18T12:18:27.487Z,74.33
2023-01-18T12:22:08.467Z,74.14
2023-01-18T12:25:47.082Z,73.11
2023-01-18T12:29:42.354Z,73.22
2023-01-18T12:33:16.628Z,73.02
2023-01-18T12:36:59.165Z,73.27
2023-01-18T12:40:37.118Z,72.88
2023-01-18T12:44:17.170Z,73.30
2023-01-18T12:47:47.623Z,72.25
2023-01-18T12:51:14.643Z,71.85
2023-01-18T12:54:41.365Z,71.86
2023-01-18T12:58:04.106Z,71.68
2023-01-18T13:01:31.037Z,71.95
2023-01-18T13:04:56.648Z,72.28
2023-01-18T13:08:24.975Z,71.83
2023-01-18T13:11:47.328Z,70.81
2023-01-18T13:15:21.652Z,71.27
2023-01-18T13:18:51.874Z,71.16
2023-01-18T13:22:24.909Z,70.23
2023-01-18T13:25:52.849Z,70.03
2023-01-18T13:29:25.806Z,70.13
2023-01-18T13:32:49.554Z,70.38
2023-01-18T13:36:14.678Z,70.29
2023-01-18T13:39:47.486Z,70.07
2023-01-18T13:43:35.130Z,69.02
2023-01-18T13:46:58.793Z,69.31
2023-01-18T13:50:45.234Z,69.30
2023-01-18T13:54:08.716Z,68.87
2023-01-18T13:57:33.399Z,68.64
2023-01-18T14:00:55.786Z,68.39
2023-01-18T14:04:31.809Z,68.29
2023-01-18T14:07:57.925Z,69.00
2023-01-18T14:11:26.004Z,68.99
2023-01-18T14:14:58.903Z,68.46
2023-01-18T14:18:26.213Z,67.70
2023-01-18T14:22:11.892Z,67.91
2023-01-18T14:25:51.510Z,67.51
2023-01-18T14:29:17.396Z,67.20
2023-01-18T14:32:58.372Z,66.83
2023-01-18T14:36:25.155Z,66.75
2023-01-18T14:39:46.874Z,66.20
2023-01-18T14:43:16.584Z,66.01
2023-01-18T14:46:38.435Z,66.53
2023-01-18T14:50:03.912Z,64.99
2023-01-18T14:53:29.028Z,65.19
2023-01-18T14:56:51.117Z,64.36
2023-01-18T15:00:18.685Z,64.05
2023-01-18T15:03:40.370Z,64.22
2023-01-18T15:07:06.949Z,65.09
2023-01-18T15:10:28.816Z,65.58
2023-01-18T15:13:52.968Z,64.41
2023-01-18T15:17:21.886Z,64.25
2023-01-18T15:20:53.815Z,64.08
2023-01-18T15:24:19.707Z,65.01
2023-01-18T15:27:42.283Z,65.95
2023-01-18T15:31:12.280Z,66.56
2023-01-18T15:34:36.997Z,66.38
2023-01-18T15:37:58.988Z,66.79
2023-01-18T15:41:21.844Z,67.02
2023-01-18T15:44:47.499Z,67.42
2023-01-18T15:48:14.299Z,67.68
2023-01-18T15:51:57.134Z,67.35
2023-01-18T15:55:23.391Z,67.74
2023-01-18T15:58:50.044Z,67.89
2023-01-18T16:02:19.959Z,68.05
2023-01-18T16:05:41.246Z,68.40
2023-01-18T16:09:10.515Z,68.67
2023-01-18T16:12:34.634Z,68.53
2023-01-18T16:16:23.687Z,68.65
2023-01-18T16:19:47.811Z,69.26
2023-01-18T16:23:17.360Z,69.25
2023-01-18T16:26:43.755Z,69.48
2023-01-18T16:30:19.131Z,69.63
2023-01-18T16:33:42.197Z,70.31
2023-01-18T16:37:05.274Z,70.04
2023-01-18T16:40:27.201Z,70.00
2023-01-18T16:43:49.065Z,69.92
2023-01-18T16:47:11.823Z,70.36
2023-01-18T16:50:35.416Z,70.05
2023-01-18T16:53:57.503Z,69.87
2023-01-18T16:57:21.376Z,70.43
2023-01-18T17:00:50.615Z,70.29
2023-01-18T17:04:12.795Z,70.67
2023-01-18T17:07:36.149Z,70.71
2023-01-18T17:10:57.759Z,70.33
2023-01-18T17:14:21.155Z,70.14
2023-01-18T17:17:43.350Z,70.64
2023-01-18T17:21:05.410Z,71.06
2023-01-18T17:24:28.773Z,70.87
2023-01-18T17:27:51.553Z,70.72
2023-01-18T17:31:13.179Z,70.58
2023-01-18T17:34:34.831Z,70.36
2023-01-18T17:38:04.673Z,70.39
2023-01-18T17:41:30.008Z,70.21
2023-01-18T17:45:02.375Z,71.10
2023-01-18T17:48:24.260Z,70.78
2023-01-18T17:51:45.693Z,70.96
2023-01-18T17:55:09.666Z,71.05
2023-01-18T17:58:32.664Z,71.21
2023-01-18T18:01:54.528Z,71.34
2023-01-18T18:05:16.304Z,71.57
2023-01-18T18:08:38.288Z,71.30
2023-01-18T18:11:59.851Z,72.02
2023-01-18T18:15:23.515Z,72.11
2023-01-18T18:18:45.409Z,71.88
2023-01-18T18:22:07.132Z,72.10
2023-01-18T18:25:28.547Z,71.67
2023-01-18T18:28:51.092Z,72.02
2023-01-18T18:32:14.734Z,72.32
2023-01-18T18:35:36.530Z,72.64
2023-01-18T18:39:01.852Z,72.47
2023-01-18T18:42:23.105Z,72.71
2023-01-18T18:45:46.715Z,72.47
2023-01-18T18:49:09.602Z,72.59
2023-01-18T18:52:31.545Z,72.78
2023-01-18T18:55:59.338Z,72.73
2023-01-18T18:59:21.254Z,72.59
2023-01-18T19:02:43.215Z,72.87
2023-01-18T19:06:06.783Z,73.56
2023-01-18T19:09:28.623Z,73.31
2023-01-18T19:12:50.359Z,73.89
2023-01-18T19:16:12.506Z,73.75
2023-01-18T19:19:34.306Z,74.17
2023-01-18T19:22:58.360Z,73.89
2023-01-18T19:26:20.016Z,73.95
2023-01-18T19:29:41.568Z,74.12
2023-01-18T19:33:03.904Z,74.81
2023-01-18T19:36:26.542Z,75.07
2023-01-18T19:39:50.027Z,74.87
2023-01-18T19:43:11.826Z,74.43
2023-01-18T19:46:34.429Z,74.78
2023-01-18T19:49:57.315Z,74.46
2023-01-18T19:53:19.003Z,74.58
2023-01-18T19:56:41.661Z,74.12
2023-01-18T20:00:06.958Z,74.15
2023-01-18T20:03:34.474Z,74.88
2023-01-18T20:06:56.356Z,74.11
2023-01-18T20:10:20.363Z,74.07
2023-01-18T20:13:48.490Z,74.02
2023-01-18T20:17:10.659Z,74.97
2023-01-18T20:20:33.081Z,74.25
2023-01-18T20:23:56.038Z,75.57
2023-01-18T20:27:18.056Z,74.92
2023-01-18T20:30:41.512Z,74.74
2023-01-18T20:34:03.602Z,76.06
2023-01-18T20:37:25.458Z,75.95
2023-01-18T20:40:47.243Z,75.14
2023-01-18T20:44:09.009Z,75.71
2023-01-18T20:47:31.974Z,76.00
2023-01-18T20:50:53.874Z,75.39
2023-01-18T20:54:15.867Z,75.52
2023-01-18T20:57:37.305Z,76.05
2023-01-18T21:01:05.772Z,75.71
2023-01-18T21:04:28.749Z,75.05
2023-01-18T21:07:50.117Z,76.02
2023-01-18T21:11:13.976Z,74.79
2023-01-18T21:14:35.286Z,74.69
2023-01-18T21:17:57.258Z,75.76
2023-01-18T21:21:21.053Z,75.62
2023-01-18T21:24:43.091Z,74.71
2023-01-18T21:28:04.773Z,75.25
2023-01-18T21:31:26.296Z,75.51
2023-01-18T21:34:48.034Z,75.77
2023-01-18T21:38:11.118Z,74.71
2023-01-18T21:41:50.137Z,75.36
2023-01-18T21:45:30.189Z,75.00
2023-01-18T21:48:51.758Z,75.69
2023-01-18T21:52:31.238Z,74.98
2023-01-18T21:55:54.148Z,75.22
2023-01-18T21:59:15.789Z,74.49
2023-01-18T22:02:37.848Z,75.39
2023-01-18T22:06:02.211Z,75.04
2023-01-18T22:09:23.866Z,75.48
2023-01-18T22:12:46.485Z,75.92
2023-01-18T22:16:08.990Z,76.03
2023-01-18T22:19:30.626Z,76.54
2023-01-18T22:22:51.981Z,75.89
2023-01-18T22:26:14.273Z,75.54
2023-01-18T22:29:37.027Z,75.59
2023-01-18T22:32:59.170Z,75.42
2023-01-18T22:36:20.554Z,75.24
2023-01-18T22:39:42.261Z,75.32
2023-01-18T22:43:03.969Z,75.33
2023-01-18T22:46:27.002Z,75.17
2023-01-18T22:49:48.917Z,75.15
2023-01-18T22:53:10.578Z,75.50
2023-01-18T22:56:32.322Z,75.30
2023-01-18T22:59:54.150Z,75.30
2023-01-18T23:03:18.271Z,75.38
2023-01-18T23:06:45.675Z,75.06
2023-01-18T23:10:07.689Z,74.90
2023-01-18T23:13:30.211Z,75.06
2023-01-18T23:17:09.852Z,75.36
2023-01-18T23:20:32.741Z,75.08
2023-01-18T23:23:54.440Z,75.04
2023-01-18T23:27:16.149Z,74.99
2023-01-18T23:30:37.875Z,75.34
2023-01-18T23:33:59.850Z,75.47
2023-01-18T23:37:23.961Z,75.26
2023-01-18T23:41:02.772Z,75.54
2023-01-18T23:44:41.867Z,75.03
2023-01-18T23:48:25.411Z,74.79
2023-01-18T23:52:04.303Z,74.20
2023-01-18T23:55:27.118Z,74.90
2023-01-18T23:58:48.238Z,74.88
